sensor_id;sensor_type;location;lat;lon;timestamp;P1;durP1;ratioP1;P2;durP2;ratioP2
24337;SDS011;12457;50.832;4.346;2023-07-29T00:00:56;1.95;;;1.27;;
24337;SDS011;12457;50.832;4.346;2023-07-29T00:03:22;1.48;;;1.30;;
24337;SDS011;12457;50.832;4.346;2023-07-29T00:05:49;2.83;;;1.73;;
24337;SDS011;12457;50.832;4.346;2023-07-29T00:08:14;5.55;;;3.15;;
24337;SDS011;12457;50.832;4.346;2023-07-29T00:10:40;2.65;;;1.58;;
24337;SDS011;12457;50.832;4.346;2023-07-29T00:13:06;2.95;;;1.40;;
24337;SDS011;12457;50.832;4.346;2023-07-29T00:15:32;2.78;;;2.03;;
24337;SDS011;12457;50.832;4.346;2023-07-29T00:17:58;2.50;;;1.60;;
24337;SDS011;12457;50.832;4.346;2023-07-29T00:20:24;3.42;;;1.52;;
24337;SDS011;12457;50.832;4.346;2023-07-29T00:22:49;1.42;;;1.33;;
24337;SDS011;12457;50.832;4.346;2023-07-29T00:25:18;5.88;;;1.60;;
24337;SDS011;12457;50.832;4.346;2023-07-29T00:27:43;5.35;;;1.40;;
24337;SDS011;12457;50.832;4.346;2023-07-29T00:30:09;4.53;;;1.48;;
24337;SDS011;12457;50.832;4.346;2023-07-29T00:32:35;5.13;;;1.77;;
24337;SDS011;12457;50.832;4.346;2023-07-29T00:35:01;2.83;;;1.70;;
24337;SDS011;12457;50.832;4.346;2023-07-29T00:37:27;4.47;;;1.45;;
24337;SDS011;12457;50.832;4.346;2023-07-29T00:39:55;3.25;;;1.80;;
24337;SDS011;12457;50.832;4.346;2023-07-29T00:42:20;4.13;;;1.40;;
24337;SDS011;12457;50.832;4.346;2023-07-29T00:44:46;5.20;;;2.00;;
24337;SDS011;12457;50.832;4.346;2023-07-29T00:47:12;10.30;;;2.50;;
24337;SDS011;12457;50.832;4.346;2023-07-29T00:49:40;5.60;;;2.00;;
24337;SDS011;12457;50.832;4.346;2023-07-29T00:52:06;2.55;;;1.90;;
24337;SDS011;12457;50.832;4.346;2023-07-29T00:54:32;4.13;;;1.40;;
24337;SDS011;12457;50.832;4.346;2023-07-29T00:56:58;5.65;;;2.72;;
24337;SDS011;12457;50.832;4.346;2023-07-29T00:59:24;2.60;;;1.83;;
24337;SDS011;12457;50.832;4.346;2023-07-29T01:01:50;3.00;;;1.70;;
24337;SDS011;12457;50.832;4.346;2023-07-29T01:04:16;3.88;;;1.90;;
24337;SDS011;12457;50.832;4.346;2023-07-29T01:06:47;2.45;;;1.42;;
24337;SDS011;12457;50.832;4.346;2023-07-29T01:09:36;4.40;;;2.10;;
24337;SDS011;12457;50.832;4.346;2023-07-29T01:12:27;3.45;;;1.73;;
24337;SDS011;12457;50.832;4.346;2023-07-29T01:20:20;6.50;;;1.90;;
24337;SDS011;12457;50.832;4.346;2023-07-29T01:22:49;3.28;;;1.80;;
24337;SDS011;12457;50.832;4.346;2023-07-29T01:25:14;5.35;;;2.42;;
24337;SDS011;12457;50.832;4.346;2023-07-29T01:27:43;4.63;;;2.10;;
24337;SDS011;12457;50.832;4.346;2023-07-29T01:30:10;2.33;;;1.80;;
24337;SDS011;12457;50.832;4.346;2023-07-29T01:32:41;2.38;;;1.80;;
24337;SDS011;12457;50.832;4.346;2023-07-29T01:35:29;2.90;;;1.83;;
24337;SDS011;12457;50.832;4.346;2023-07-29T01:38:09;6.70;;;2.10;;
24337;SDS011;12457;50.832;4.346;2023-07-29T01:40:39;4.75;;;1.60;;
24337;SDS011;12457;50.832;4.346;2023-07-29T01:43:06;3.15;;;1.95;;
24337;SDS011;12457;50.832;4.346;2023-07-29T01:45:33;4.30;;;2.50;;
24337;SDS011;12457;50.832;4.346;2023-07-29T01:48:03;6.70;;;2.33;;
24337;SDS011;12457;50.832;4.346;2023-07-29T01:50:32;6.72;;;3.60;;
24337;SDS011;12457;50.832;4.346;2023-07-29T01:52:59;3.78;;;1.90;;
24337;SDS011;12457;50.832;4.346;2023-07-29T01:55:25;5.03;;;2.00;;
24337;SDS011;12457;50.832;4.346;2023-07-29T01:57:51;6.32;;;2.53;;
24337;SDS011;12457;50.832;4.346;2023-07-29T02:00:17;3.67;;;2.10;;
24337;SDS011;12457;50.832;4.346;2023-07-29T02:02:44;2.42;;;1.98;;
24337;SDS011;12457;50.832;4.346;2023-07-29T02:05:09;5.50;;;2.80;;
24337;SDS011;12457;50.832;4.346;2023-07-29T02:07:35;4.50;;;1.80;;
24337;SDS011;12457;50.832;4.346;2023-07-29T02:10:01;2.97;;;1.73;;
24337;SDS011;12457;50.832;4.346;2023-07-29T02:12:26;5.28;;;1.98;;
24337;SDS011;12457;50.832;4.346;2023-07-29T02:14:52;5.47;;;2.22;;
24337;SDS011;12457;50.832;4.346;2023-07-29T02:17:18;4.65;;;2.47;;
24337;SDS011;12457;50.832;4.346;2023-07-29T02:19:44;3.22;;;1.70;;
24337;SDS011;12457;50.832;4.346;2023-07-29T02:22:10;3.25;;;2.13;;
24337;SDS011;12457;50.832;4.346;2023-07-29T02:24:38;4.35;;;2.10;;
24337;SDS011;12457;50.832;4.346;2023-07-29T02:27:03;4.65;;;2.13;;
24337;SDS011;12457;50.832;4.346;2023-07-29T02:29:29;4.38;;;2.35;;
24337;SDS011;12457;50.832;4.346;2023-07-29T02:31:55;6.85;;;1.88;;
24337;SDS011;12457;50.832;4.346;2023-07-29T02:34:21;7.07;;;2.20;;
24337;SDS011;12457;50.832;4.346;2023-07-29T02:36:47;8.40;;;3.97;;
24337;SDS011;12457;50.832;4.346;2023-07-29T02:39:12;7.25;;;2.05;;
24337;SDS011;12457;50.832;4.346;2023-07-29T02:41:39;4.03;;;2.35;;
24337;SDS011;12457;50.832;4.346;2023-07-29T02:44:05;7.13;;;2.38;;
24337;SDS011;12457;50.832;4.346;2023-07-29T02:46:31;5.85;;;3.15;;
24337;SDS011;12457;50.832;4.346;2023-07-29T02:48:57;7.20;;;1.88;;
24337;SDS011;12457;50.832;4.346;2023-07-29T02:51:24;5.82;;;1.98;;
24337;SDS011;12457;50.832;4.346;2023-07-29T02:54:05;5.90;;;1.85;;
24337;SDS011;12457;50.832;4.346;2023-07-29T02:56:31;3.20;;;2.22;;
24337;SDS011;12457;50.832;4.346;2023-07-29T02:58:57;6.60;;;2.28;;
24337;SDS011;12457;50.832;4.346;2023-07-29T03:01:22;7.30;;;2.10;;
24337;SDS011;12457;50.832;4.346;2023-07-29T03:03:50;4.70;;;2.88;;
24337;SDS011;12457;50.832;4.346;2023-07-29T03:06:16;3.55;;;1.80;;
24337;SDS011;12457;50.832;4.346;2023-07-29T03:08:42;4.85;;;2.42;;
24337;SDS011;12457;50.832;4.346;2023-07-29T03:11:09;4.45;;;2.25;;
24337;SDS011;12457;50.832;4.346;2023-07-29T03:13:37;4.43;;;2.35;;
24337;SDS011;12457;50.832;4.346;2023-07-29T03:18:39;4.15;;;2.22;;
24337;SDS011;12457;50.832;4.346;2023-07-29T03:21:06;4.10;;;1.70;;
24337;SDS011;12457;50.832;4.346;2023-07-29T03:23:34;4.45;;;2.10;;
24337;SDS011;12457;50.832;4.346;2023-07-29T03:26:00;5.78;;;2.20;;
24337;SDS011;12457;50.832;4.346;2023-07-29T03:28:29;3.25;;;2.30;;
24337;SDS011;12457;50.832;4.346;2023-07-29T03:30:58;6.10;;;1.95;;
24337;SDS011;12457;50.832;4.346;2023-07-29T03:33:24;4.72;;;2.20;;
24337;SDS011;12457;50.832;4.346;2023-07-29T03:35:51;3.28;;;1.90;;
24337;SDS011;12457;50.832;4.346;2023-07-29T03:38:17;7.93;;;4.13;;
24337;SDS011;12457;50.832;4.346;2023-07-29T03:40:43;5.13;;;1.98;;
24337;SDS011;12457;50.832;4.346;2023-07-29T03:43:09;3.22;;;2.50;;
24337;SDS011;12457;50.832;4.346;2023-07-29T03:45:34;4.28;;;2.30;;
24337;SDS011;12457;50.832;4.346;2023-07-29T03:48:01;3.33;;;2.20;;
24337;SDS011;12457;50.832;4.346;2023-07-29T03:50:27;4.05;;;1.85;;
24337;SDS011;12457;50.832;4.346;2023-07-29T03:52:54;3.55;;;1.92;;
24337;SDS011;12457;50.832;4.346;2023-07-29T03:55:20;3.30;;;1.80;;
24337;SDS011;12457;50.832;4.346;2023-07-29T03:57:46;4.05;;;1.95;;
24337;SDS011;12457;50.832;4.346;2023-07-29T04:00:12;2.45;;;1.83;;
24337;SDS011;12457;50.832;4.346;2023-07-29T04:02:38;3.47;;;2.28;;
24337;SDS011;12457;50.832;4.346;2023-07-29T04:05:04;3.72;;;2.03;;
24337;SDS011;12457;50.832;4.346;2023-07-29T04:07:33;4.18;;;2.47;;
24337;SDS011;12457;50.832;4.346;2023-07-29T04:09:59;7.78;;;2.20;;
24337;SDS011;12457;50.832;4.346;2023-07-29T04:12:26;3.92;;;2.08;;
24337;SDS011;12457;50.832;4.346;2023-07-29T04:14:51;4.93;;;2.13;;
24337;SDS011;12457;50.832;4.346;2023-07-29T04:17:17;6.93;;;2.15;;
24337;SDS011;12457;50.832;4.346;2023-07-29T04:19:43;2.22;;;1.80;;
24337;SDS011;12457;50.832;4.346;2023-07-29T04:22:09;7.72;;;2.05;;
24337;SDS011;12457;50.832;4.346;2023-07-29T04:24:36;4.65;;;2.15;;
24337;SDS011;12457;50.832;4.346;2023-07-29T04:27:03;7.13;;;2.33;;
24337;SDS011;12457;50.832;4.346;2023-07-29T04:29:29;4.88;;;2.00;;
24337;SDS011;12457;50.832;4.346;2023-07-29T04:31:54;3.00;;;2.50;;
24337;SDS011;12457;50.832;4.346;2023-07-29T04:34:20;4.20;;;2.10;;
24337;SDS011;12457;50.832;4.346;2023-07-29T04:36:46;5.00;;;2.10;;
24337;SDS011;12457;50.832;4.346;2023-07-29T04:39:12;2.60;;;1.90;;
24337;SDS011;12457;50.832;4.346;2023-07-29T04:41:38;3.60;;;2.05;;
24337;SDS011;12457;50.832;4.346;2023-07-29T04:44:03;5.50;;;2.00;;
24337;SDS011;12457;50.832;4.346;2023-07-29T04:46:29;3.42;;;1.90;;
24337;SDS011;12457;50.832;4.346;2023-07-29T04:48:55;6.40;;;2.50;;
24337;SDS011;12457;50.832;4.346;2023-07-29T04:51:21;7.80;;;1.95;;
24337;SDS011;12457;50.832;4.346;2023-07-29T04:53:47;2.33;;;1.83;;
24337;SDS011;12457;50.832;4.346;2023-07-29T04:56:13;4.35;;;1.85;;
24337;SDS011;12457;50.832;4.346;2023-07-29T04:58:38;3.08;;;1.88;;
24337;SDS011;12457;50.832;4.346;2023-07-29T05:01:04;3.60;;;1.80;;
24337;SDS011;12457;50.832;4.346;2023-07-29T05:03:31;3.83;;;2.17;;
24337;SDS011;12457;50.832;4.346;2023-07-29T05:05:57;4.85;;;2.17;;
24337;SDS011;12457;50.832;4.346;2023-07-29T05:08:24;5.10;;;1.88;;
24337;SDS011;12457;50.832;4.346;2023-07-29T05:10:52;5.47;;;1.90;;
24337;SDS011;12457;50.832;4.346;2023-07-29T05:13:19;8.75;;;2.50;;
24337;SDS011;12457;50.832;4.346;2023-07-29T05:15:46;4.38;;;2.10;;
24337;SDS011;12457;50.832;4.346;2023-07-29T05:18:13;9.70;;;2.05;;
24337;SDS011;12457;50.832;4.346;2023-07-29T05:20:40;7.75;;;1.83;;
24337;SDS011;12457;50.832;4.346;2023-07-29T05:23:05;4.13;;;1.70;;
24337;SDS011;12457;50.832;4.346;2023-07-29T05:25:31;3.85;;;1.48;;
24337;SDS011;12457;50.832;4.346;2023-07-29T05:27:59;2.92;;;1.50;;
24337;SDS011;12457;50.832;4.346;2023-07-29T05:30:28;6.15;;;1.75;;
24337;SDS011;12457;50.832;4.346;2023-07-29T05:33:05;3.67;;;1.73;;
24337;SDS011;12457;50.832;4.346;2023-07-29T05:35:33;2.10;;;1.48;;
24337;SDS011;12457;50.832;4.346;2023-07-29T05:37:59;2.35;;;1.80;;
24337;SDS011;12457;50.832;4.346;2023-07-29T05:40:24;4.13;;;1.50;;
24337;SDS011;12457;50.832;4.346;2023-07-29T05:42:50;2.75;;;1.50;;
24337;SDS011;12457;50.832;4.346;2023-07-29T05:45:16;3.17;;;1.30;;
24337;SDS011;12457;50.832;4.346;2023-07-29T05:47:41;2.88;;;1.42;;
24337;SDS011;12457;50.832;4.346;2023-07-29T05:50:08;2.92;;;1.50;;
24337;SDS011;12457;50.832;4.346;2023-07-29T05:52:34;3.20;;;1.65;;
24337;SDS011;12457;50.832;4.346;2023-07-29T05:54:59;3.03;;;1.20;;
24337;SDS011;12457;50.832;4.346;2023-07-29T05:57:25;4.03;;;1.27;;
24337;SDS011;12457;50.832;4.346;2023-07-29T05:59:51;6.53;;;1.20;;
24337;SDS011;12457;50.832;4.346;2023-07-29T06:02:17;2.88;;;1.48;;
24337;SDS011;12457;50.832;4.346;2023-07-29T06:04:43;4.30;;;1.40;;
24337;SDS011;12457;50.832;4.346;2023-07-29T06:07:08;3.40;;;1.05;;
24337;SDS011;12457;50.832;4.346;2023-07-29T06:09:34;5.18;;;1.73;;
24337;SDS011;12457;50.832;4.346;2023-07-29T06:12:00;4.55;;;1.63;;
24337;SDS011;12457;50.832;4.346;2023-07-29T06:14:26;3.88;;;1.23;;
24337;SDS011;12457;50.832;4.346;2023-07-29T06:16:51;2.70;;;1.38;;
24337;SDS011;12457;50.832;4.346;2023-07-29T06:19:17;3.95;;;1.30;;
24337;SDS011;12457;50.832;4.346;2023-07-29T06:21:45;3.40;;;1.20;;
24337;SDS011;12457;50.832;4.346;2023-07-29T06:24:10;4.22;;;1.10;;
24337;SDS011;12457;50.832;4.346;2023-07-29T06:26:36;1.92;;;1.20;;
24337;SDS011;12457;50.832;4.346;2023-07-29T06:29:02;10.70;;;4.05;;
24337;SDS011;12457;50.832;4.346;2023-07-29T06:31:27;1.88;;;1.52;;
24337;SDS011;12457;50.832;4.346;2023-07-29T06:33:54;4.57;;;1.27;;
24337;SDS011;12457;50.832;4.346;2023-07-29T06:36:20;4.43;;;2.00;;
24337;SDS011;12457;50.832;4.346;2023-07-29T06:38:46;8.75;;;3.55;;
24337;SDS011;12457;50.832;4.346;2023-07-29T06:41:11;2.83;;;1.50;;
24337;SDS011;12457;50.832;4.346;2023-07-29T06:43:37;3.28;;;1.15;;
24337;SDS011;12457;50.832;4.346;2023-07-29T06:46:03;4.80;;;1.15;;
24337;SDS011;12457;50.832;4.346;2023-07-29T06:48:28;2.03;;;1.02;;
24337;SDS011;12457;50.832;4.346;2023-07-29T06:50:54;1.48;;;0.93;;
24337;SDS011;12457;50.832;4.346;2023-07-29T06:53:20;3.22;;;1.67;;
24337;SDS011;12457;50.832;4.346;2023-07-29T06:55:51;4.38;;;1.50;;
24337;SDS011;12457;50.832;4.346;2023-07-29T06:58:17;2.75;;;1.33;;
24337;SDS011;12457;50.832;4.346;2023-07-29T07:00:42;7.05;;;1.20;;
24337;SDS011;12457;50.832;4.346;2023-07-29T07:03:08;2.28;;;1.10;;
24337;SDS011;12457;50.832;4.346;2023-07-29T07:05:34;2.42;;;1.20;;
24337;SDS011;12457;50.832;4.346;2023-07-29T07:07:59;2.92;;;1.35;;
24337;SDS011;12457;50.832;4.346;2023-07-29T07:10:25;1.58;;;1.42;;
24337;SDS011;12457;50.832;4.346;2023-07-29T07:12:51;3.63;;;1.80;;
24337;SDS011;12457;50.832;4.346;2023-07-29T07:15:17;4.15;;;2.50;;
24337;SDS011;12457;50.832;4.346;2023-07-29T07:17:42;3.38;;;2.35;;
24337;SDS011;12457;50.832;4.346;2023-07-29T07:20:08;4.70;;;2.90;;
24337;SDS011;12457;50.832;4.346;2023-07-29T07:22:34;5.15;;;2.70;;
24337;SDS011;12457;50.832;4.346;2023-07-29T07:24:59;3.22;;;1.30;;
24337;SDS011;12457;50.832;4.346;2023-07-29T07:27:25;5.10;;;1.48;;
24337;SDS011;12457;50.832;4.346;2023-07-29T07:29:51;6.80;;;3.10;;
24337;SDS011;12457;50.832;4.346;2023-07-29T07:32:16;5.63;;;4.82;;
24337;SDS011;12457;50.832;4.346;2023-07-29T07:34:42;12.40;;;8.90;;
24337;SDS011;12457;50.832;4.346;2023-07-29T07:37:08;12.90;;;7.75;;
24337;SDS011;12457;50.832;4.346;2023-07-29T07:39:33;8.95;;;4.20;;
24337;SDS011;12457;50.832;4.346;2023-07-29T07:41:59;9.98;;;5.68;;
24337;SDS011;12457;50.832;4.346;2023-07-29T07:44:25;6.05;;;3.28;;
24337;SDS011;12457;50.832;4.346;2023-07-29T07:46:51;5.30;;;2.88;;
24337;SDS011;12457;50.832;4.346;2023-07-29T07:49:18;3.92;;;1.55;;
24337;SDS011;12457;50.832;4.346;2023-07-29T07:51:44;3.38;;;1.27;;
24337;SDS011;12457;50.832;4.346;2023-07-29T07:54:10;5.10;;;2.30;;
24337;SDS011;12457;50.832;4.346;2023-07-29T07:56:35;3.38;;;1.92;;
24337;SDS011;12457;50.832;4.346;2023-07-29T07:59:01;3.70;;;2.20;;
24337;SDS011;12457;50.832;4.346;2023-07-29T08:01:27;4.80;;;2.33;;
24337;SDS011;12457;50.832;4.346;2023-07-29T08:03:52;4.22;;;2.72;;
24337;SDS011;12457;50.832;4.346;2023-07-29T08:06:18;4.07;;;1.55;;
24337;SDS011;12457;50.832;4.346;2023-07-29T08:08:44;4.90;;;2.53;;
24337;SDS011;12457;50.832;4.346;2023-07-29T08:11:10;6.70;;;2.28;;
24337;SDS011;12457;50.832;4.346;2023-07-29T08:13:35;11.18;;;5.65;;
24337;SDS011;12457;50.832;4.346;2023-07-29T08:16:01;6.18;;;3.47;;
24337;SDS011;12457;50.832;4.346;2023-07-29T08:18:27;6.63;;;2.65;;
24337;SDS011;12457;50.832;4.346;2023-07-29T08:23:20;3.05;;;1.30;;
24337;SDS011;12457;50.832;4.346;2023-07-29T08:25:50;3.00;;;2.17;;
24337;SDS011;12457;50.832;4.346;2023-07-29T08:28:17;3.58;;;1.73;;
24337;SDS011;12457;50.832;4.346;2023-07-29T08:30:43;1.88;;;1.33;;
24337;SDS011;12457;50.832;4.346;2023-07-29T08:33:08;4.03;;;1.20;;
24337;SDS011;12457;50.832;4.346;2023-07-29T08:35:34;2.70;;;1.35;;
24337;SDS011;12457;50.832;4.346;2023-07-29T08:38:00;5.72;;;3.50;;
24337;SDS011;12457;50.832;4.346;2023-07-29T08:40:27;2.72;;;1.90;;
24337;SDS011;12457;50.832;4.346;2023-07-29T08:42:55;12.13;;;5.85;;
24337;SDS011;12457;50.832;4.346;2023-07-29T08:45:23;6.60;;;4.45;;
24337;SDS011;12457;50.832;4.346;2023-07-29T08:47:50;9.75;;;5.97;;
24337;SDS011;12457;50.832;4.346;2023-07-29T08:50:20;2.45;;;1.45;;
24337;SDS011;12457;50.832;4.346;2023-07-29T08:52:47;3.30;;;2.35;;
24337;SDS011;12457;50.832;4.346;2023-07-29T08:55:14;5.63;;;2.10;;
24337;SDS011;12457;50.832;4.346;2023-07-29T08:57:40;5.68;;;2.97;;
24337;SDS011;12457;50.832;4.346;2023-07-29T09:00:06;8.60;;;5.72;;
24337;SDS011;12457;50.832;4.346;2023-07-29T09:02:32;9.80;;;2.10;;
24337;SDS011;12457;50.832;4.346;2023-07-29T09:04:58;8.70;;;3.70;;
24337;SDS011;12457;50.832;4.346;2023-07-29T09:07:23;7.00;;;4.28;;
24337;SDS011;12457;50.832;4.346;2023-07-29T09:09:51;6.93;;;4.28;;
24337;SDS011;12457;50.832;4.346;2023-07-29T09:12:16;6.68;;;3.90;;
24337;SDS011;12457;50.832;4.346;2023-07-29T09:14:42;3.95;;;2.70;;
24337;SDS011;12457;50.832;4.346;2023-07-29T09:17:08;5.80;;;3.33;;
24337;SDS011;12457;50.832;4.346;2023-07-29T09:19:34;5.88;;;3.70;;
24337;SDS011;12457;50.832;4.346;2023-07-29T09:22:02;3.17;;;2.30;;
24337;SDS011;12457;50.832;4.346;2023-07-29T09:24:28;9.55;;;2.20;;
24337;SDS011;12457;50.832;4.346;2023-07-29T09:26:57;2.40;;;2.00;;
24337;SDS011;12457;50.832;4.346;2023-07-29T09:29:23;4.13;;;2.35;;
24337;SDS011;12457;50.832;4.346;2023-07-29T09:31:48;3.75;;;2.90;;
24337;SDS011;12457;50.832;4.346;2023-07-29T09:34:16;8.57;;;4.82;;
24337;SDS011;12457;50.832;4.346;2023-07-29T09:36:42;10.25;;;5.65;;
24337;SDS011;12457;50.832;4.346;2023-07-29T09:39:11;10.55;;;6.13;;
24337;SDS011;12457;50.832;4.346;2023-07-29T09:41:40;4.43;;;3.38;;
24337;SDS011;12457;50.832;4.346;2023-07-29T09:44:06;5.95;;;3.10;;
24337;SDS011;12457;50.832;4.346;2023-07-29T09:46:36;4.03;;;1.98;;
24337;SDS011;12457;50.832;4.346;2023-07-29T09:49:04;2.63;;;2.10;;
24337;SDS011;12457;50.832;4.346;2023-07-29T09:51:30;6.10;;;2.00;;
24337;SDS011;12457;50.832;4.346;2023-07-29T09:53:56;3.80;;;1.75;;
24337;SDS011;12457;50.832;4.346;2023-07-29T09:56:26;5.97;;;2.78;;
24337;SDS011;12457;50.832;4.346;2023-07-29T09:58:52;3.10;;;1.83;;
24337;SDS011;12457;50.832;4.346;2023-07-29T10:01:20;3.75;;;2.20;;
24337;SDS011;12457;50.832;4.346;2023-07-29T10:03:46;2.33;;;2.10;;
24337;SDS011;12457;50.832;4.346;2023-07-29T10:06:14;10.38;;;6.68;;
24337;SDS011;12457;50.832;4.346;2023-07-29T10:08:40;13.85;;;6.57;;
24337;SDS011;12457;50.832;4.346;2023-07-29T10:11:08;7.22;;;3.50;;
24337;SDS011;12457;50.832;4.346;2023-07-29T10:13:35;4.00;;;2.50;;
24337;SDS011;12457;50.832;4.346;2023-07-29T10:16:02;4.30;;;2.10;;
24337;SDS011;12457;50.832;4.346;2023-07-29T10:18:29;2.63;;;1.50;;
24337;SDS011;12457;50.832;4.346;2023-07-29T10:20:56;4.40;;;1.80;;
24337;SDS011;12457;50.832;4.346;2023-07-29T10:23:24;5.63;;;2.47;;
24337;SDS011;12457;50.832;4.346;2023-07-29T10:26:04;2.92;;;1.90;;
24337;SDS011;12457;50.832;4.346;2023-07-29T10:28:31;12.13;;;2.08;;
24337;SDS011;12457;50.832;4.346;2023-07-29T10:31:00;4.60;;;2.20;;
24337;SDS011;12457;50.832;4.346;2023-07-29T10:33:27;5.70;;;2.85;;
24337;SDS011;12457;50.832;4.346;2023-07-29T10:35:53;12.27;;;4.53;;
24337;SDS011;12457;50.832;4.346;2023-07-29T10:38:23;10.30;;;5.50;;
24337;SDS011;12457;50.832;4.346;2023-07-29T10:40:51;8.55;;;5.20;;
24337;SDS011;12457;50.832;4.346;2023-07-29T10:43:25;11.95;;;7.40;;
24337;SDS011;12457;50.832;4.346;2023-07-29T10:45:51;10.90;;;5.70;;
24337;SDS011;12457;50.832;4.346;2023-07-29T10:51:27;7.45;;;3.00;;
24337;SDS011;12457;50.832;4.346;2023-07-29T10:53:55;8.30;;;4.95;;
24337;SDS011;12457;50.832;4.346;2023-07-29T10:56:42;9.68;;;3.88;;
24337;SDS011;12457;50.832;4.346;2023-07-29T11:01:41;7.80;;;5.68;;
24337;SDS011;12457;50.832;4.346;2023-07-29T11:12:53;6.97;;;4.07;;
24337;SDS011;12457;50.832;4.346;2023-07-29T11:17:57;7.95;;;5.82;;
24337;SDS011;12457;50.832;4.346;2023-07-29T11:20:28;4.47;;;3.47;;
24337;SDS011;12457;50.832;4.346;2023-07-29T11:22:55;3.75;;;3.10;;
24337;SDS011;12457;50.832;4.346;2023-07-29T11:25:23;4.70;;;3.00;;
24337;SDS011;12457;50.832;4.346;2023-07-29T11:27:53;5.82;;;3.05;;
24337;SDS011;12457;50.832;4.346;2023-07-29T11:30:20;4.45;;;2.55;;
24337;SDS011;12457;50.832;4.346;2023-07-29T11:32:48;3.90;;;2.20;;
24337;SDS011;12457;50.832;4.346;2023-07-29T11:35:15;3.38;;;2.13;;
24337;SDS011;12457;50.832;4.346;2023-07-29T11:37:43;6.85;;;2.40;;
24337;SDS011;12457;50.832;4.346;2023-07-29T11:40:13;2.20;;;1.65;;
24337;SDS011;12457;50.832;4.346;2023-07-29T11:42:40;2.88;;;1.80;;
24337;SDS011;12457;50.832;4.346;2023-07-29T11:45:06;3.40;;;1.95;;
24337;SDS011;12457;50.832;4.346;2023-07-29T11:47:33;2.47;;;1.63;;
24337;SDS011;12457;50.832;4.346;2023-07-29T11:50:06;2.17;;;1.80;;
24337;SDS011;12457;50.832;4.346;2023-07-29T11:52:48;2.85;;;2.10;;
24337;SDS011;12457;50.832;4.346;2023-07-29T11:55:14;1.63;;;1.40;;
24337;SDS011;12457;50.832;4.346;2023-07-29T11:57:41;2.35;;;1.70;;
24337;SDS011;12457;50.832;4.346;2023-07-29T12:00:08;2.75;;;2.10;;
24337;SDS011;12457;50.832;4.346;2023-07-29T12:02:36;2.05;;;1.67;;
24337;SDS011;12457;50.832;4.346;2023-07-29T12:05:04;3.38;;;1.77;;
24337;SDS011;12457;50.832;4.346;2023-07-29T12:07:31;4.50;;;2.40;;
24337;SDS011;12457;50.832;4.346;2023-07-29T12:10:00;3.63;;;2.78;;
24337;SDS011;12457;50.832;4.346;2023-07-29T12:12:28;7.07;;;4.07;;
24337;SDS011;12457;50.832;4.346;2023-07-29T12:14:54;7.38;;;4.47;;
24337;SDS011;12457;50.832;4.346;2023-07-29T12:17:20;4.70;;;3.58;;
24337;SDS011;12457;50.832;4.346;2023-07-29T12:19:46;3.53;;;2.58;;
24337;SDS011;12457;50.832;4.346;2023-07-29T12:22:23;2.67;;;2.40;;
24337;SDS011;12457;50.832;4.346;2023-07-29T12:24:50;3.80;;;3.15;;
24337;SDS011;12457;50.832;4.346;2023-07-29T12:27:18;4.60;;;3.40;;
24337;SDS011;12457;50.832;4.346;2023-07-29T12:29:46;6.65;;;3.70;;
24337;SDS011;12457;50.832;4.346;2023-07-29T12:32:13;4.05;;;2.97;;
24337;SDS011;12457;50.832;4.346;2023-07-29T12:34:39;4.07;;;3.40;;
24337;SDS011;12457;50.832;4.346;2023-07-29T12:37:05;6.60;;;2.90;;
24337;SDS011;12457;50.832;4.346;2023-07-29T12:39:32;5.13;;;3.40;;
24337;SDS011;12457;50.832;4.346;2023-07-29T12:41:59;2.65;;;2.40;;
24337;SDS011;12457;50.832;4.346;2023-07-29T12:44:38;4.25;;;2.45;;
24337;SDS011;12457;50.832;4.346;2023-07-29T12:47:04;2.83;;;2.53;;
24337;SDS011;12457;50.832;4.346;2023-07-29T12:49:31;3.03;;;1.95;;
24337;SDS011;12457;50.832;4.346;2023-07-29T12:51:57;3.22;;;2.70;;
24337;SDS011;12457;50.832;4.346;2023-07-29T12:54:24;3.95;;;2.53;;
24337;SDS011;12457;50.832;4.346;2023-07-29T12:56:50;4.15;;;2.63;;
24337;SDS011;12457;50.832;4.346;2023-07-29T12:59:16;4.05;;;2.78;;
24337;SDS011;12457;50.832;4.346;2023-07-29T13:01:42;4.32;;;2.63;;
24337;SDS011;12457;50.832;4.346;2023-07-29T13:04:09;5.72;;;2.67;;
24337;SDS011;12457;50.832;4.346;2023-07-29T13:06:36;3.22;;;2.10;;
24337;SDS011;12457;50.832;4.346;2023-07-29T13:09:02;1.60;;;1.50;;
24337;SDS011;12457;50.832;4.346;2023-07-29T13:11:28;5.13;;;2.03;;
24337;SDS011;12457;50.832;4.346;2023-07-29T13:13:54;2.25;;;1.95;;
24337;SDS011;12457;50.832;4.346;2023-07-29T13:16:20;6.32;;;2.85;;
24337;SDS011;12457;50.832;4.346;2023-07-29T13:18:45;4.28;;;2.35;;
24337;SDS011;12457;50.832;4.346;2023-07-29T13:21:11;7.63;;;2.70;;
24337;SDS011;12457;50.832;4.346;2023-07-29T13:23:37;4.75;;;2.42;;
24337;SDS011;12457;50.832;4.346;2023-07-29T13:26:02;6.35;;;1.90;;
24337;SDS011;12457;50.832;4.346;2023-07-29T13:28:34;2.53;;;1.60;;
24337;SDS011;12457;50.832;4.346;2023-07-29T13:31:00;4.20;;;1.58;;
24337;SDS011;12457;50.832;4.346;2023-07-29T13:33:26;2.53;;;1.70;;
24337;SDS011;12457;50.832;4.346;2023-07-29T13:35:52;4.40;;;2.00;;
24337;SDS011;12457;50.832;4.346;2023-07-29T13:38:19;3.05;;;2.45;;
24337;SDS011;12457;50.832;4.346;2023-07-29T13:40:45;1.80;;;1.60;;
24337;SDS011;12457;50.832;4.346;2023-07-29T13:43:10;3.63;;;1.67;;
24337;SDS011;12457;50.832;4.346;2023-07-29T13:45:36;2.92;;;1.67;;
24337;SDS011;12457;50.832;4.346;2023-07-29T13:48:02;4.30;;;1.65;;
24337;SDS011;12457;50.832;4.346;2023-07-29T13:50:28;1.83;;;1.30;;
24337;SDS011;12457;50.832;4.346;2023-07-29T13:52:54;4.50;;;1.55;;
24337;SDS011;12457;50.832;4.346;2023-07-29T13:55:19;2.25;;;1.55;;
24337;SDS011;12457;50.832;4.346;2023-07-29T13:57:45;1.63;;;1.30;;
24337;SDS011;12457;50.832;4.346;2023-07-29T14:00:11;3.60;;;2.15;;
24337;SDS011;12457;50.832;4.346;2023-07-29T14:02:37;2.15;;;1.60;;
24337;SDS011;12457;50.832;4.346;2023-07-29T14:05:04;4.70;;;1.85;;
24337;SDS011;12457;50.832;4.346;2023-07-29T14:07:32;2.05;;;1.95;;
24337;SDS011;12457;50.832;4.346;2023-07-29T14:09:57;2.20;;;1.40;;
24337;SDS011;12457;50.832;4.346;2023-07-29T14:12:23;3.80;;;1.10;;
24337;SDS011;12457;50.832;4.346;2023-07-29T14:14:49;1.77;;;1.10;;
24337;SDS011;12457;50.832;4.346;2023-07-29T14:17:15;4.20;;;1.80;;
24337;SDS011;12457;50.832;4.346;2023-07-29T14:19:41;4.95;;;1.35;;
24337;SDS011;12457;50.832;4.346;2023-07-29T14:22:06;3.95;;;1.25;;
24337;SDS011;12457;50.832;4.346;2023-07-29T14:24:32;1.33;;;1.10;;
24337;SDS011;12457;50.832;4.346;2023-07-29T14:26:58;2.05;;;1.23;;
24337;SDS011;12457;50.832;4.346;2023-07-29T14:29:23;2.97;;;1.67;;
24337;SDS011;12457;50.832;4.346;2023-07-29T14:31:49;3.53;;;1.55;;
24337;SDS011;12457;50.832;4.346;2023-07-29T14:34:15;2.05;;;1.40;;
24337;SDS011;12457;50.832;4.346;2023-07-29T14:36:41;2.60;;;1.55;;
24337;SDS011;12457;50.832;4.346;2023-07-29T14:39:08;2.42;;;1.50;;
24337;SDS011;12457;50.832;4.346;2023-07-29T14:41:34;1.00;;;0.90;;
24337;SDS011;12457;50.832;4.346;2023-07-29T14:44:00;2.60;;;1.42;;
24337;SDS011;12457;50.832;4.346;2023-07-29T14:46:25;3.25;;;1.52;;
24337;SDS011;12457;50.832;4.346;2023-07-29T14:48:51;2.38;;;1.00;;
24337;SDS011;12457;50.832;4.346;2023-07-29T14:51:17;2.42;;;1.67;;
24337;SDS011;12457;50.832;4.346;2023-07-29T14:53:43;1.77;;;1.60;;
24337;SDS011;12457;50.832;4.346;2023-07-29T14:56:08;1.42;;;1.23;;
24337;SDS011;12457;50.832;4.346;2023-07-29T14:58:34;4.10;;;2.08;;
24337;SDS011;12457;50.832;4.346;2023-07-29T15:01:00;3.58;;;1.60;;
24337;SDS011;12457;50.832;4.346;2023-07-29T15:03:25;3.00;;;1.92;;
24337;SDS011;12457;50.832;4.346;2023-07-29T15:05:51;3.75;;;1.85;;
24337;SDS011;12457;50.832;4.346;2023-07-29T15:08:17;3.95;;;1.95;;
24337;SDS011;12457;50.832;4.346;2023-07-29T15:10:46;5.35;;;1.52;;
24337;SDS011;12457;50.832;4.346;2023-07-29T15:13:12;2.67;;;1.70;;